SNCO2: N. Canadian River at Shawnee, OK

Data processed at Sat Mar 10 2018 22:59


All information presented herein is the property of the government of the United States of America and may be revised or deleted at any time without prior notice.
Dissemination of this information without the expressed written consent of the Public Affairs Office, Tulsa District U.S. Army Corps of Engineers is strictly prohibited.
These data are gathered electronically and, as presented, have not undergone any form of quality control. These data are not guaranteed to be valid or correct.
Go to home page.
Go to station list.

Upstream stations:

Downstream station:
Previous Day
Next Day
Current Day
    
SHEF ID:       SNCO2     North Canadian River at Shawnee,
STATION TYPE:  

                STAGE  RIV-FLOW  BAT-LOAD
                   ft       cfs      volt
              Ccp-Rev   Ccp-Rev   Ccp-Rev
(US/Central)
03/08 00:00      9.59       159     12.77
03/08 01:00      9.58       156     12.71
03/08 02:00      9.58       156     12.71
03/08 03:00      9.58       156     12.65
03/08 04:00      9.57       153     12.65
03/08 05:00      9.57       153     12.60
03/08 06:00      9.57       153     12.60
03/08 07:00      9.58       156     12.54
03/08 08:00      9.58       156     12.95
03/08 09:00      9.59       159     13.53
03/08 10:00      9.61       165     13.48
03/08 11:00      9.62       168     13.59
03/08 12:00      9.64       174     13.65
03/08 13:00      9.65       177     13.48
03/08 14:00      9.64       174     13.53
03/08 15:00      9.65       177     13.48
03/08 16:00      9.68       187     13.42
03/08 17:00      9.70       194     13.36
03/08 18:00      9.69       190     13.18
03/08 19:00      9.73       204     13.00
03/08 20:00      9.74       207     12.89
03/08 21:00      9.74       207     12.89
03/08 22:00      9.75       211     12.83
03/08 23:00      9.74       207     12.77